Stations météo

réclame
Mon MeteoGroup
Hinojosa Del Duque, Espagne (8335): Température de l'air & dewpoint: 12.10.2017 14:00:00 - 18.10.2017 14:00:00 (CEST)Hinojosa Del Duque, Espagne (8335): Vitesse du vent & gusts: 12.10.2017 14:00:00 - 18.10.2017 14:00:00 (CEST)Hinojosa Del Duque, Espagne (8335): Direction du vent: 12.10.2017 14:00:00 - 18.10.2017 14:00:00 (CEST)Hinojosa Del Duque, Espagne (8335): reduced air pressure: 12.10.2017 14:00:00 - 18.10.2017 14:00:00 (CEST)Hinojosa Del Duque, Espagne (8335): Quantités de précipitations: 12.10.2017 14:00:00 - 18.10.2017 14:00:00 (CEST)
Date & Time tt [°C] td [°C] ff [km/h] ff [knt] fx [km/h] fx [knt] dd ppp [hPa] rr [mm]
18.10.2017 14:00:00 14,1 9,6 16 9 26 14 W 1013,4 -
18.10.2017 13:00:00 13,0 10,5 17 9 34 18 W 1014,3 0,9
18.10.2017 12:00:00 13,8 11,4 17 9 25 13 W 1013,7 0,0
18.10.2017 11:00:00 12,9 11,8 16 9 23 13 W 1013,9 2,2
18.10.2017 10:00:00 13,1 11,8 13 7 18 10 W 1013,5 0,4
18.10.2017 09:00:00 13,7 12,4 9 5 23 13 SW 1012,9 0,9
18.10.2017 08:00:00 13,7 12,6 11 6 17 9 SW 1012,9 -
18.10.2017 07:00:00 13,9 12,7 9 5 21 12 SSW 1013,0 0,1
18.10.2017 06:00:00 14,1 13,0 14 7 26 14 WSW 1013,3 0,7
18.10.2017 05:00:00 14,3 13,2 17 9 30 16 SW 1013,7 4,0
18.10.2017 04:00:00 14,9 13,5 13 7 20 11 S 1013,9 0,0
18.10.2017 03:00:00 14,9 13,5 11 6 16 9 SSE 1014,8 0,0
18.10.2017 02:00:00 14,7 13,5 9 5 15 8 S 1016,1 -
18.10.2017 01:00:00 14,4 13,2 4 2 11 6 SSE 1016,7 0,0
18.10.2017 00:00:00 14,8 13,1 10 6 21 12 S 1017,1 0,0
17.10.2017 23:00:00 15,5 13,6 15 8 24 13 S 1017,3 0,0
17.10.2017 22:00:00 16,2 14,2 13 7 25 13 S 1016,9 0,0
17.10.2017 21:00:00 16,2 14,0 10 6 17 9 SSE 1017,1 0,0
17.10.2017 20:00:00 16,2 13,2 14 8 21 11 S 1017,2 -
17.10.2017 19:00:00 16,9 13,3 12 7 24 13 S 1017,4 0,0
17.10.2017 18:00:00 17,0 13,9 13 7 21 12 S 1017,8 0,0
17.10.2017 17:00:00 17,1 14,0 10 5 23 12 S 1018,2 0,0
17.10.2017 16:00:00 16,3 13,9 14 8 38 21 S 1018,5 0,7
17.10.2017 15:00:00 15,4 13,1 29 16 43 23 S 1019,8 5,1
17.10.2017 14:00:00 19,7 13,0 15 8 31 17 SSW 1019,1 -
17.10.2017 13:00:00 21,6 13,0 17 9 28 15 S 1018,4 0,0
17.10.2017 12:00:00 20,6 12,8 10 5 19 10 SSW 1019,7 0,0
17.10.2017 11:00:00 19,5 12,0 12 7 21 12 SW 1020,8 0,0
17.10.2017 10:00:00 18,3 11,6 8 4 16 9 SSE 1020,3 0,0
17.10.2017 09:00:00 17,0 10,9 12 6 16 9 SSE 1019,8 0,0
17.10.2017 08:00:00 16,8 10,6 11 6 19 10 SE 1019,6 -
17.10.2017 07:00:00 16,7 10,0 8 4 16 9 SE 1019,4 0,0
17.10.2017 06:00:00 17,5 9,4 6 3 9 5 E 1019,3 0,0
17.10.2017 05:00:00 18,0 9,3 6 4 22 12 SE 1019,4 0,0
17.10.2017 04:00:00 18,1 9,9 10 6 19 11 ESE 1019,7 0,0
17.10.2017 03:00:00 18,0 9,6 7 4 11 6 E 1020,5 0,0
17.10.2017 02:00:00 18,1 9,4 6 3 15 8 SSE 1020,8 -
17.10.2017 01:00:00 17,7 8,3 10 5 13 7 SSE 1021,4 0,0
17.10.2017 00:00:00 17,2 7,0 12 6 14 8 S 1021,6 0,0
16.10.2017 23:00:00 17,8 6,7 9 5 16 9 SSE 1021,5 0,0
16.10.2017 22:00:00 19,0 7,1 11 6 14 8 S 1021,0 0,0
16.10.2017 21:00:00 20,7 7,3 9 5 15 8 S 1020,4 0,0
16.10.2017 20:00:00 23,4 8,3 10 6 19 10 SSW 1019,7 -
16.10.2017 19:00:00 25,9 9,7 9 5 24 13 SSW 1018,7 0,0
16.10.2017 18:00:00 27,4 10,2 13 7 25 14 SSW 1018,5 0,0
16.10.2017 17:00:00 28,6 10,3 11 6 26 14 SSW 1018,4 0,0
16.10.2017 16:00:00 28,8 10,4 11 6 24 13 S 1018,5 0,0
16.10.2017 15:00:00 28,2 10,9 13 7 28 15 SSE 1019,3 0,0
16.10.2017 14:00:00 27,6 10,8 16 8 28 15 S 1020,2 -
16.10.2017 13:00:00 26,5 10,2 17 9 28 15 S 1020,8 0,0
16.10.2017 12:00:00 24,5 9,7 17 9 27 15 SSE 1021,6 0,0
16.10.2017 11:00:00 20,8 10,5 13 7 22 12 SE 1022,3 0,0
16.10.2017 10:00:00 16,4 9,0 11 6 18 10 E 1022,8 0,0
16.10.2017 09:00:00 12,8 7,0 1 1 16 9 ESE 1022,9 0,0
16.10.2017 08:00:00 12,7 5,8 9 5 18 10 E 1022,5 -
16.10.2017 07:00:00 15,0 6,2 7 4 18 10 SE 1021,7 0,0
16.10.2017 06:00:00 16,0 5,3 10 6 19 10 S 1021,5 0,0
16.10.2017 05:00:00 17,7 5,3 13 7 22 12 SE 1020,8 0,0
16.10.2017 04:00:00 19,4 6,5 16 8 23 12 S 1020,8 0,0
16.10.2017 03:00:00 18,0 5,6 9 5 18 10 SE 1021,2 0,0
16.10.2017 02:00:00 19,5 6,2 14 8 19 10 SSE 1021,0 -
16.10.2017 01:00:00 20,0 6,4 14 7 26 14 SSE 1021,1 0,0
16.10.2017 00:00:00 19,4 5,8 6 3 15 8 SSE 1021,1 0,0
15.10.2017 23:00:00 21,1 6,5 13 7 24 13 SSE 1020,9 0,0
15.10.2017 22:00:00 22,3 7,3 17 9 26 14 S 1020,3 0,0
15.10.2017 21:00:00 23,5 8,0 18 10 24 13 S 1019,6 0,0
15.10.2017 20:00:00 25,2 8,7 15 8 24 13 S 1018,9 -
15.10.2017 19:00:00 28,1 10,3 16 9 27 15 S 1018,2 0,0
15.10.2017 18:00:00 29,8 11,3 16 8 29 16 S 1017,6 0,0
15.10.2017 17:00:00 30,2 11,7 17 9 32 17 S 1017,8 0,0
15.10.2017 16:00:00 30,0 11,4 18 10 39 21 S 1018,4 0,0
15.10.2017 15:00:00 29,8 11,8 18 10 34 19 SSE 1018,8 0,0
15.10.2017 14:00:00 29,3 11,8 15 8 27 14 S 1020,0 -
15.10.2017 13:00:00 28,7 12,1 16 8 28 15 S 1020,8 0,0
15.10.2017 12:00:00 26,4 11,3 8 5 16 8 ESE 1021,6 0,0
15.10.2017 11:00:00 23,6 10,3 6 3 9 5 ESE 1022,5 0,0
15.10.2017 10:00:00 21,1 9,3 5 3 9 5 SE 1022,7 0,0
15.10.2017 09:00:00 17,4 6,8 5 3 9 5 SE 1022,9 0,0
15.10.2017 08:00:00 16,9 6,4 6 3 10 6 SSE 1022,6 -
15.10.2017 07:00:00 17,6 7,0 9 5 12 6 SSE 1022,6 0,0
15.10.2017 06:00:00 16,7 6,2 9 5 16 8 E 1022,7 0,0
15.10.2017 05:00:00 16,6 5,8 8 4 11 6 SSE 1022,7 0,0
15.10.2017 04:00:00 17,5 6,1 7 4 16 9 SE 1022,7 0,0
15.10.2017 03:00:00 19,6 7,3 6 3 10 5 SSW 1022,6 0,0
15.10.2017 02:00:00 20,3 7,7 5 3 10 5 S 1022,7 -
15.10.2017 01:00:00 21,9 8,4 6 3 9 5 SSE 1022,7 0,0
15.10.2017 00:00:00 22,0 8,5 4 2 10 6 S 1022,9 0,0
14.10.2017 23:00:00 23,0 9,0 5 3 11 6 S 1022,4 0,0
14.10.2017 22:00:00 23,6 8,4 5 3 8 5 SSW 1021,9 0,0
14.10.2017 21:00:00 24,9 9,2 3 2 8 4 W 1021,4 0,0
14.10.2017 20:00:00 26,0 9,8 5 3 6 3 SE 1020,9 -
14.10.2017 19:00:00 28,5 11,1 3 2 8 4 E 1020,1 0,0
14.10.2017 18:00:00 30,9 12,7 0 0 11 6 N 1019,4 0,0
14.10.2017 17:00:00 30,9 13,3 4 2 17 9 NW 1019,6 0,0
14.10.2017 16:00:00 28,8 12,2 10 6 16 9 NW 1020,3 0,0
14.10.2017 15:00:00 28,7 12,1 8 4 16 9 S 1020,7 0,0
14.10.2017 14:00:00 29,0 13,7 8 4 16 9 WNW 1021,4 -
14.10.2017 13:00:00 28,0 13,2 6 4 14 8 WNW 1022,3 0,0
14.10.2017 12:00:00 26,7 13,1 4 2 10 6 NW 1022,7 0,0
14.10.2017 11:00:00 22,0 10,8 1 0 9 5 SSE 1023,8 0,0
14.10.2017 10:00:00 17,6 8,9 7 4 10 5 SE 1024,0 0,0
14.10.2017 09:00:00 13,3 6,2 0 0 0 0 N 1024,5 0,0
14.10.2017 08:00:00 13,0 5,9 0 0 0 0 N 1024,4 -
14.10.2017 07:00:00 13,4 5,8 1 1 9 5 SSE 1024,2 0,0
14.10.2017 06:00:00 14,6 6,4 6 3 8 4 SE 1023,7 0,0
14.10.2017 05:00:00 17,2 7,8 5 3 8 5 ESE 1023,2 0,0
14.10.2017 04:00:00 17,5 8,1 6 4 9 5 SE 1023,4 0,0
14.10.2017 03:00:00 16,2 6,5 6 3 8 4 SSE 1024,0 0,0
14.10.2017 02:00:00 17,9 7,3 6 3 10 5 SSE 1023,8 -
14.10.2017 01:00:00 17,4 6,8 7 4 11 6 S 1024,2 0,0
14.10.2017 00:00:00 18,5 7,0 4 2 8 4 S 1024,1 0,0
13.10.2017 23:00:00 19,3 7,4 2 1 6 4 W 1023,6 0,0
13.10.2017 22:00:00 20,9 8,1 3 2 7 4 WSW 1023,0 0,0
13.10.2017 21:00:00 22,7 8,8 3 2 13 7 SSE 1022,2 0,0
13.10.2017 20:00:00 24,6 8,9 10 6 22 12 NNW 1021,1 -
13.10.2017 19:00:00 28,4 11,0 15 8 23 12 NNW 1020,0 0,0
13.10.2017 18:00:00 30,3 12,2 13 7 30 16 WSW 1019,5 0,0
13.10.2017 17:00:00 30,9 12,7 16 9 31 17 WSW 1019,4 0,0
13.10.2017 16:00:00 31,2 13,1 8 4 31 17 SSW 1019,6 0,0
13.10.2017 15:00:00 29,6 11,7 15 8 31 17 WSW 1020,8 0,0
13.10.2017 14:00:00 29,0 11,6 13 7 28 15 WSW 1021,6 -
13.10.2017 13:00:00 28,4 11,0 19 10 29 16 WSW 1022,2 0,0
13.10.2017 12:00:00 27,2 10,4 13 7 22 12 SSW 1022,7 0,0
13.10.2017 11:00:00 23,4 8,7 1 1 9 5 E 1023,2 0,0
13.10.2017 10:00:00 18,8 6,2 4 2 7 4 ENE 1023,7 0,0
13.10.2017 09:00:00 15,1 4,1 3 1 9 5 ESE 1024,0 0,0
13.10.2017 08:00:00 16,1 4,8 6 3 13 7 ESE 1024,0 -
13.10.2017 07:00:00 15,9 5,1 8 4 12 7 SE 1023,8 0,0
13.10.2017 06:00:00 16,2 4,8 9 5 11 6 SSE 1023,8 0,0
13.10.2017 05:00:00 16,6 5,3 8 5 11 6 SE 1023,8 0,0
13.10.2017 04:00:00 16,7 5,3 9 5 11 6 SSE 1024,1 0,0
13.10.2017 03:00:00 17,2 5,8 8 4 10 5 SSE 1024,1 0,0
13.10.2017 02:00:00 17,1 5,6 7 4 10 5 SSE 1024,3 -
13.10.2017 01:00:00 17,9 6,1 8 5 10 5 SSE 1024,1 0,0
13.10.2017 00:00:00 18,1 5,9 6 4 11 6 S 1023,9 0,0
12.10.2017 23:00:00 - - - - - - - - -
12.10.2017 22:00:00 - - - - - - - - -
12.10.2017 21:00:00 - - - - - - - - -
12.10.2017 20:00:00 - - - - - - - - -
12.10.2017 19:00:00 28,8 11,8 16 9 32 17 S 1020,2 0,0
12.10.2017 18:00:00 29,7 12,1 18 10 37 20 SW 1020,0 0,0
12.10.2017 17:00:00 30,3 12,6 18 10 37 20 SW 1020,0 0,0
12.10.2017 16:00:00 29,3 11,8 17 9 39 21 SW 1020,4 0,0
12.10.2017 15:00:00 29,6 12,5 22 12 40 22 SSW 1020,7 0,0
12.10.2017 14:00:00 30,2 13,1 17 9 31 17 S 1021,2 -

tt = Température de l'air
td = dewpoint
ff = Vitesse du vent
fx = gusts
dd = Direction du vent
ppp = reduced air pressure
rr = Quantités de précipitations

stations d'obs. à proximité